sensor_id;sensor_type;location;lat;lon;timestamp;P1;durP1;ratioP1;P2;durP2;ratioP2
2161;SDS011;1087;50.226;8.682;2023-03-04T00:01:35;15.67;;;10.93;;
2161;SDS011;1087;50.226;8.682;2023-03-04T00:04:01;16.97;;;11.70;;
2161;SDS011;1087;50.226;8.682;2023-03-04T00:06:26;19.20;;;12.60;;
2161;SDS011;1087;50.226;8.682;2023-03-04T00:08:52;16.17;;;11.10;;
2161;SDS011;1087;50.226;8.682;2023-03-04T00:11:17;18.93;;;13.00;;
2161;SDS011;1087;50.226;8.682;2023-03-04T00:13:43;17.50;;;12.40;;
2161;SDS011;1087;50.226;8.682;2023-03-04T00:16:08;14.00;;;11.10;;
2161;SDS011;1087;50.226;8.682;2023-03-04T00:18:34;19.83;;;12.23;;
2161;SDS011;1087;50.226;8.682;2023-03-04T00:20:59;23.97;;;14.03;;
2161;SDS011;1087;50.226;8.682;2023-03-04T00:23:25;26.67;;;14.00;;
2161;SDS011;1087;50.226;8.682;2023-03-04T00:25:50;29.03;;;15.43;;
2161;SDS011;1087;50.226;8.682;2023-03-04T00:28:16;26.03;;;15.13;;
2161;SDS011;1087;50.226;8.682;2023-03-04T00:30:41;24.83;;;15.20;;
2161;SDS011;1087;50.226;8.682;2023-03-04T00:33:07;24.97;;;15.30;;
2161;SDS011;1087;50.226;8.682;2023-03-04T00:35:32;25.00;;;15.50;;
2161;SDS011;1087;50.226;8.682;2023-03-04T00:37:58;25.67;;;15.87;;
2161;SDS011;1087;50.226;8.682;2023-03-04T00:40:23;27.20;;;17.10;;
2161;SDS011;1087;50.226;8.682;2023-03-04T00:42:49;28.87;;;16.93;;
2161;SDS011;1087;50.226;8.682;2023-03-04T00:45:14;28.93;;;15.40;;
2161;SDS011;1087;50.226;8.682;2023-03-04T00:47:40;30.07;;;17.60;;
2161;SDS011;1087;50.226;8.682;2023-03-04T00:50:05;30.00;;;19.53;;
2161;SDS011;1087;50.226;8.682;2023-03-04T00:52:31;32.27;;;18.00;;
2161;SDS011;1087;50.226;8.682;2023-03-04T00:54:57;32.90;;;17.03;;
2161;SDS011;1087;50.226;8.682;2023-03-04T00:57:22;35.93;;;18.27;;
2161;SDS011;1087;50.226;8.682;2023-03-04T00:59:48;31.97;;;16.53;;
2161;SDS011;1087;50.226;8.682;2023-03-04T01:02:13;31.40;;;16.70;;
2161;SDS011;1087;50.226;8.682;2023-03-04T01:04:39;27.40;;;18.10;;
2161;SDS011;1087;50.226;8.682;2023-03-04T01:07:05;31.73;;;18.27;;
2161;SDS011;1087;50.226;8.682;2023-03-04T01:09:32;37.37;;;19.47;;
2161;SDS011;1087;50.226;8.682;2023-03-04T01:11:58;31.17;;;18.13;;
2161;SDS011;1087;50.226;8.682;2023-03-04T01:14:23;33.40;;;19.40;;
2161;SDS011;1087;50.226;8.682;2023-03-04T01:16:49;27.47;;;17.07;;
2161;SDS011;1087;50.226;8.682;2023-03-04T01:19:15;33.00;;;19.33;;
2161;SDS011;1087;50.226;8.682;2023-03-04T01:21:41;37.27;;;20.10;;
2161;SDS011;1087;50.226;8.682;2023-03-04T01:24:06;32.27;;;19.23;;
2161;SDS011;1087;50.226;8.682;2023-03-04T01:26:32;36.43;;;20.00;;
2161;SDS011;1087;50.226;8.682;2023-03-04T01:28:57;31.87;;;19.17;;
2161;SDS011;1087;50.226;8.682;2023-03-04T01:31:23;31.87;;;17.60;;
2161;SDS011;1087;50.226;8.682;2023-03-04T01:33:49;30.07;;;17.57;;
2161;SDS011;1087;50.226;8.682;2023-03-04T01:36:14;27.20;;;18.40;;
2161;SDS011;1087;50.226;8.682;2023-03-04T01:38:40;26.80;;;15.87;;
2161;SDS011;1087;50.226;8.682;2023-03-04T01:41:05;31.13;;;18.20;;
2161;SDS011;1087;50.226;8.682;2023-03-04T01:43:31;27.77;;;16.67;;
2161;SDS011;1087;50.226;8.682;2023-03-04T01:45:59;30.37;;;16.83;;
2161;SDS011;1087;50.226;8.682;2023-03-04T01:48:29;30.90;;;18.20;;
2161;SDS011;1087;50.226;8.682;2023-03-04T01:50:58;37.03;;;20.50;;
2161;SDS011;1087;50.226;8.682;2023-03-04T01:53:26;30.20;;;18.63;;
2161;SDS011;1087;50.226;8.682;2023-03-04T01:55:53;29.47;;;17.83;;
2161;SDS011;1087;50.226;8.682;2023-03-04T01:58:29;29.23;;;18.03;;
2161;SDS011;1087;50.226;8.682;2023-03-04T02:00:56;31.07;;;18.80;;
2161;SDS011;1087;50.226;8.682;2023-03-04T02:03:25;35.57;;;21.53;;
2161;SDS011;1087;50.226;8.682;2023-03-04T02:05:51;32.10;;;19.23;;
2161;SDS011;1087;50.226;8.682;2023-03-04T02:08:19;32.27;;;19.37;;
2161;SDS011;1087;50.226;8.682;2023-03-04T02:10:46;34.03;;;20.80;;
2161;SDS011;1087;50.226;8.682;2023-03-04T02:13:13;33.10;;;19.17;;
2161;SDS011;1087;50.226;8.682;2023-03-04T02:15:39;30.73;;;17.60;;
2161;SDS011;1087;50.226;8.682;2023-03-04T02:18:21;32.63;;;20.23;;
2161;SDS011;1087;50.226;8.682;2023-03-04T02:20:53;31.20;;;20.10;;
2161;SDS011;1087;50.226;8.682;2023-03-04T02:26:31;36.87;;;19.27;;
2161;SDS011;1087;50.226;8.682;2023-03-04T02:28:59;39.10;;;20.47;;
2161;SDS011;1087;50.226;8.682;2023-03-04T02:31:26;32.53;;;19.23;;
2161;SDS011;1087;50.226;8.682;2023-03-04T02:33:56;27.30;;;18.57;;
2161;SDS011;1087;50.226;8.682;2023-03-04T02:36:24;27.83;;;19.20;;
2161;SDS011;1087;50.226;8.682;2023-03-04T02:38:51;32.23;;;18.90;;
2161;SDS011;1087;50.226;8.682;2023-03-04T02:41:18;31.63;;;20.80;;
2161;SDS011;1087;50.226;8.682;2023-03-04T02:43:48;31.20;;;20.33;;
2161;SDS011;1087;50.226;8.682;2023-03-04T02:46:16;33.80;;;20.13;;
2161;SDS011;1087;50.226;8.682;2023-03-04T02:48:41;32.93;;;18.93;;
2161;SDS011;1087;50.226;8.682;2023-03-04T02:51:07;34.00;;;20.23;;
2161;SDS011;1087;50.226;8.682;2023-03-04T02:53:33;37.00;;;21.40;;
2161;SDS011;1087;50.226;8.682;2023-03-04T02:55:58;34.70;;;20.47;;
2161;SDS011;1087;50.226;8.682;2023-03-04T02:58:24;35.10;;;21.00;;
2161;SDS011;1087;50.226;8.682;2023-03-04T03:00:50;30.50;;;18.77;;
2161;SDS011;1087;50.226;8.682;2023-03-04T03:03:15;33.23;;;20.70;;
2161;SDS011;1087;50.226;8.682;2023-03-04T03:05:41;36.10;;;20.33;;
2161;SDS011;1087;50.226;8.682;2023-03-04T03:08:06;34.80;;;21.07;;
2161;SDS011;1087;50.226;8.682;2023-03-04T03:10:32;28.30;;;20.17;;
2161;SDS011;1087;50.226;8.682;2023-03-04T03:12:58;30.43;;;20.10;;
2161;SDS011;1087;50.226;8.682;2023-03-04T03:15:23;32.30;;;19.60;;
2161;SDS011;1087;50.226;8.682;2023-03-04T03:17:49;29.33;;;19.00;;
2161;SDS011;1087;50.226;8.682;2023-03-04T03:20:15;32.37;;;21.47;;
2161;SDS011;1087;50.226;8.682;2023-03-04T03:22:41;39.53;;;21.60;;
2161;SDS011;1087;50.226;8.682;2023-03-04T03:25:07;34.43;;;19.43;;
2161;SDS011;1087;50.226;8.682;2023-03-04T03:27:34;31.20;;;21.90;;
2161;SDS011;1087;50.226;8.682;2023-03-04T03:30:00;32.67;;;20.03;;
2161;SDS011;1087;50.226;8.682;2023-03-04T03:32:25;29.40;;;20.67;;
2161;SDS011;1087;50.226;8.682;2023-03-04T03:34:51;30.70;;;21.40;;
2161;SDS011;1087;50.226;8.682;2023-03-04T03:37:16;30.33;;;21.27;;
2161;SDS011;1087;50.226;8.682;2023-03-04T03:39:42;32.47;;;20.17;;
2161;SDS011;1087;50.226;8.682;2023-03-04T03:42:07;33.90;;;21.10;;
2161;SDS011;1087;50.226;8.682;2023-03-04T03:44:33;32.43;;;19.20;;
2161;SDS011;1087;50.226;8.682;2023-03-04T03:46:59;32.83;;;20.93;;
2161;SDS011;1087;50.226;8.682;2023-03-04T03:49:24;33.13;;;21.43;;
2161;SDS011;1087;50.226;8.682;2023-03-04T03:51:50;33.20;;;22.53;;
2161;SDS011;1087;50.226;8.682;2023-03-04T03:54:15;30.97;;;20.37;;
2161;SDS011;1087;50.226;8.682;2023-03-04T03:56:41;31.27;;;21.80;;
2161;SDS011;1087;50.226;8.682;2023-03-04T03:59:06;32.07;;;20.63;;
2161;SDS011;1087;50.226;8.682;2023-03-04T04:01:32;32.73;;;20.10;;
2161;SDS011;1087;50.226;8.682;2023-03-04T04:03:58;31.77;;;21.77;;
2161;SDS011;1087;50.226;8.682;2023-03-04T04:06:24;26.60;;;19.10;;
2161;SDS011;1087;50.226;8.682;2023-03-04T04:08:50;31.70;;;20.50;;
2161;SDS011;1087;50.226;8.682;2023-03-04T04:11:16;28.70;;;20.90;;
2161;SDS011;1087;50.226;8.682;2023-03-04T04:13:42;32.53;;;21.60;;
2161;SDS011;1087;50.226;8.682;2023-03-04T04:16:08;29.40;;;20.27;;
2161;SDS011;1087;50.226;8.682;2023-03-04T04:18:34;27.03;;;20.37;;
2161;SDS011;1087;50.226;8.682;2023-03-04T04:21:01;31.73;;;20.80;;
2161;SDS011;1087;50.226;8.682;2023-03-04T04:23:27;33.80;;;19.60;;
2161;SDS011;1087;50.226;8.682;2023-03-04T04:25:56;30.77;;;21.40;;
2161;SDS011;1087;50.226;8.682;2023-03-04T04:28:22;31.20;;;19.87;;
2161;SDS011;1087;50.226;8.682;2023-03-04T04:30:48;30.87;;;21.37;;
2161;SDS011;1087;50.226;8.682;2023-03-04T04:33:15;31.20;;;21.70;;
2161;SDS011;1087;50.226;8.682;2023-03-04T04:35:41;30.37;;;19.87;;
2161;SDS011;1087;50.226;8.682;2023-03-04T04:38:07;30.73;;;20.67;;
2161;SDS011;1087;50.226;8.682;2023-03-04T04:40:33;28.17;;;20.97;;
2161;SDS011;1087;50.226;8.682;2023-03-04T04:42:59;32.27;;;22.33;;
2161;SDS011;1087;50.226;8.682;2023-03-04T04:45:24;28.33;;;19.40;;
2161;SDS011;1087;50.226;8.682;2023-03-04T04:47:50;28.10;;;20.83;;
2161;SDS011;1087;50.226;8.682;2023-03-04T04:50:17;29.07;;;20.50;;
2161;SDS011;1087;50.226;8.682;2023-03-04T04:52:42;30.30;;;20.33;;
2161;SDS011;1087;50.226;8.682;2023-03-04T04:55:08;33.13;;;21.70;;
2161;SDS011;1087;50.226;8.682;2023-03-04T04:57:34;28.90;;;21.60;;
2161;SDS011;1087;50.226;8.682;2023-03-04T05:00:00;35.23;;;22.97;;
2161;SDS011;1087;50.226;8.682;2023-03-04T05:02:26;36.67;;;23.33;;
2161;SDS011;1087;50.226;8.682;2023-03-04T05:04:52;38.00;;;26.00;;
2161;SDS011;1087;50.226;8.682;2023-03-04T05:07:17;37.13;;;25.30;;
2161;SDS011;1087;50.226;8.682;2023-03-04T05:09:43;32.40;;;24.20;;
2161;SDS011;1087;50.226;8.682;2023-03-04T05:12:09;40.50;;;27.43;;
2161;SDS011;1087;50.226;8.682;2023-03-04T05:14:35;36.80;;;25.53;;
2161;SDS011;1087;50.226;8.682;2023-03-04T05:17:00;40.87;;;26.27;;
2161;SDS011;1087;50.226;8.682;2023-03-04T05:19:26;32.73;;;21.57;;
2161;SDS011;1087;50.226;8.682;2023-03-04T05:21:52;29.40;;;21.57;;
2161;SDS011;1087;50.226;8.682;2023-03-04T05:24:17;31.30;;;21.47;;
2161;SDS011;1087;50.226;8.682;2023-03-04T05:26:43;29.07;;;21.23;;
2161;SDS011;1087;50.226;8.682;2023-03-04T05:29:08;29.10;;;20.20;;
2161;SDS011;1087;50.226;8.682;2023-03-04T05:31:34;34.53;;;23.93;;
2161;SDS011;1087;50.226;8.682;2023-03-04T05:33:59;30.60;;;22.33;;
2161;SDS011;1087;50.226;8.682;2023-03-04T05:36:25;30.27;;;20.47;;
2161;SDS011;1087;50.226;8.682;2023-03-04T05:38:50;30.53;;;21.77;;
2161;SDS011;1087;50.226;8.682;2023-03-04T05:41:16;33.37;;;23.37;;
2161;SDS011;1087;50.226;8.682;2023-03-04T05:43:46;35.77;;;25.30;;
2161;SDS011;1087;50.226;8.682;2023-03-04T05:46:13;33.67;;;24.40;;
2161;SDS011;1087;50.226;8.682;2023-03-04T05:48:40;34.87;;;23.80;;
2161;SDS011;1087;50.226;8.682;2023-03-04T05:51:06;34.57;;;24.10;;
2161;SDS011;1087;50.226;8.682;2023-03-04T05:53:31;36.10;;;23.93;;
2161;SDS011;1087;50.226;8.682;2023-03-04T05:56:05;31.00;;;22.53;;
2161;SDS011;1087;50.226;8.682;2023-03-04T05:58:34;33.00;;;22.20;;
2161;SDS011;1087;50.226;8.682;2023-03-04T06:01:00;27.97;;;20.80;;
2161;SDS011;1087;50.226;8.682;2023-03-04T06:03:26;27.50;;;21.00;;
2161;SDS011;1087;50.226;8.682;2023-03-04T06:05:52;25.30;;;20.40;;
2161;SDS011;1087;50.226;8.682;2023-03-04T06:08:18;24.73;;;20.43;;
2161;SDS011;1087;50.226;8.682;2023-03-04T06:10:43;28.57;;;20.67;;
2161;SDS011;1087;50.226;8.682;2023-03-04T06:13:09;31.17;;;20.80;;
2161;SDS011;1087;50.226;8.682;2023-03-04T06:15:35;25.80;;;22.40;;
2161;SDS011;1087;50.226;8.682;2023-03-04T06:18:02;28.80;;;19.70;;
2161;SDS011;1087;50.226;8.682;2023-03-04T06:20:28;26.13;;;19.33;;
2161;SDS011;1087;50.226;8.682;2023-03-04T06:22:53;28.97;;;21.13;;
2161;SDS011;1087;50.226;8.682;2023-03-04T06:25:19;27.83;;;20.03;;
2161;SDS011;1087;50.226;8.682;2023-03-04T06:27:44;27.50;;;19.53;;
2161;SDS011;1087;50.226;8.682;2023-03-04T06:30:10;27.93;;;20.00;;
2161;SDS011;1087;50.226;8.682;2023-03-04T06:32:36;26.50;;;18.90;;
2161;SDS011;1087;50.226;8.682;2023-03-04T06:35:01;27.30;;;18.33;;
2161;SDS011;1087;50.226;8.682;2023-03-04T06:37:27;28.43;;;18.30;;
2161;SDS011;1087;50.226;8.682;2023-03-04T06:39:52;25.83;;;17.30;;
2161;SDS011;1087;50.226;8.682;2023-03-04T06:42:18;30.10;;;19.53;;
2161;SDS011;1087;50.226;8.682;2023-03-04T06:44:44;28.70;;;18.87;;
2161;SDS011;1087;50.226;8.682;2023-03-04T06:47:09;23.20;;;18.20;;
2161;SDS011;1087;50.226;8.682;2023-03-04T06:49:35;24.13;;;17.80;;
2161;SDS011;1087;50.226;8.682;2023-03-04T06:52:00;27.40;;;19.47;;
2161;SDS011;1087;50.226;8.682;2023-03-04T06:54:26;26.13;;;18.23;;
2161;SDS011;1087;50.226;8.682;2023-03-04T06:56:51;25.83;;;18.07;;
2161;SDS011;1087;50.226;8.682;2023-03-04T06:59:17;24.57;;;20.17;;
2161;SDS011;1087;50.226;8.682;2023-03-04T07:01:43;24.33;;;17.10;;
2161;SDS011;1087;50.226;8.682;2023-03-04T07:04:08;23.43;;;18.10;;
2161;SDS011;1087;50.226;8.682;2023-03-04T07:06:34;24.50;;;18.00;;
2161;SDS011;1087;50.226;8.682;2023-03-04T07:08:59;24.77;;;17.33;;
2161;SDS011;1087;50.226;8.682;2023-03-04T07:11:25;35.50;;;25.73;;
2161;SDS011;1087;50.226;8.682;2023-03-04T07:13:51;29.63;;;20.87;;
2161;SDS011;1087;50.226;8.682;2023-03-04T07:16:18;24.37;;;18.20;;
2161;SDS011;1087;50.226;8.682;2023-03-04T07:18:44;25.60;;;18.33;;
2161;SDS011;1087;50.226;8.682;2023-03-04T07:21:11;22.37;;;16.90;;
2161;SDS011;1087;50.226;8.682;2023-03-04T07:23:38;23.63;;;17.33;;
2161;SDS011;1087;50.226;8.682;2023-03-04T07:26:04;26.33;;;17.23;;
2161;SDS011;1087;50.226;8.682;2023-03-04T07:28:30;23.20;;;17.17;;
2161;SDS011;1087;50.226;8.682;2023-03-04T07:30:56;20.80;;;16.30;;
2161;SDS011;1087;50.226;8.682;2023-03-04T07:33:31;23.70;;;16.80;;
2161;SDS011;1087;50.226;8.682;2023-03-04T07:35:59;25.07;;;17.57;;
2161;SDS011;1087;50.226;8.682;2023-03-04T07:38:28;24.13;;;17.30;;
2161;SDS011;1087;50.226;8.682;2023-03-04T07:40:54;25.90;;;17.77;;
2161;SDS011;1087;50.226;8.682;2023-03-04T07:43:21;20.03;;;14.70;;
2161;SDS011;1087;50.226;8.682;2023-03-04T07:45:46;23.80;;;15.23;;
2161;SDS011;1087;50.226;8.682;2023-03-04T07:48:12;20.60;;;16.00;;
2161;SDS011;1087;50.226;8.682;2023-03-04T07:50:37;28.20;;;18.97;;
2161;SDS011;1087;50.226;8.682;2023-03-04T07:53:03;22.40;;;15.53;;
2161;SDS011;1087;50.226;8.682;2023-03-04T07:55:28;25.67;;;18.60;;
2161;SDS011;1087;50.226;8.682;2023-03-04T07:57:55;19.60;;;15.73;;
2161;SDS011;1087;50.226;8.682;2023-03-04T08:00:21;28.37;;;18.10;;
2161;SDS011;1087;50.226;8.682;2023-03-04T08:02:47;25.77;;;16.10;;
2161;SDS011;1087;50.226;8.682;2023-03-04T08:05:13;26.33;;;16.80;;
2161;SDS011;1087;50.226;8.682;2023-03-04T08:07:39;22.83;;;16.03;;
2161;SDS011;1087;50.226;8.682;2023-03-04T08:10:05;27.57;;;15.60;;
2161;SDS011;1087;50.226;8.682;2023-03-04T08:12:31;23.73;;;14.90;;
2161;SDS011;1087;50.226;8.682;2023-03-04T08:14:58;23.93;;;15.20;;
2161;SDS011;1087;50.226;8.682;2023-03-04T08:17:23;22.73;;;15.17;;
2161;SDS011;1087;50.226;8.682;2023-03-04T08:19:49;23.47;;;14.97;;
2161;SDS011;1087;50.226;8.682;2023-03-04T08:22:14;23.87;;;15.73;;
2161;SDS011;1087;50.226;8.682;2023-03-04T08:24:40;19.93;;;13.70;;
2161;SDS011;1087;50.226;8.682;2023-03-04T08:27:06;19.87;;;14.30;;
2161;SDS011;1087;50.226;8.682;2023-03-04T08:29:33;19.07;;;13.27;;
2161;SDS011;1087;50.226;8.682;2023-03-04T08:31:58;23.63;;;15.50;;
2161;SDS011;1087;50.226;8.682;2023-03-04T08:34:25;26.43;;;14.00;;
2161;SDS011;1087;50.226;8.682;2023-03-04T08:36:52;22.30;;;14.57;;
2161;SDS011;1087;50.226;8.682;2023-03-04T08:39:18;21.30;;;12.53;;
2161;SDS011;1087;50.226;8.682;2023-03-04T08:41:44;22.27;;;13.33;;
2161;SDS011;1087;50.226;8.682;2023-03-04T08:44:10;29.43;;;19.13;;
2161;SDS011;1087;50.226;8.682;2023-03-04T08:46:36;22.13;;;15.60;;
2161;SDS011;1087;50.226;8.682;2023-03-04T08:49:03;21.67;;;14.70;;
2161;SDS011;1087;50.226;8.682;2023-03-04T08:51:29;20.20;;;13.37;;
2161;SDS011;1087;50.226;8.682;2023-03-04T08:53:55;21.00;;;14.43;;
2161;SDS011;1087;50.226;8.682;2023-03-04T08:56:20;23.33;;;15.67;;
2161;SDS011;1087;50.226;8.682;2023-03-04T08:58:46;25.60;;;15.20;;
2161;SDS011;1087;50.226;8.682;2023-03-04T09:01:12;21.63;;;14.10;;
2161;SDS011;1087;50.226;8.682;2023-03-04T09:03:39;28.03;;;18.53;;
2161;SDS011;1087;50.226;8.682;2023-03-04T09:06:05;18.50;;;12.63;;
2161;SDS011;1087;50.226;8.682;2023-03-04T09:08:32;19.50;;;11.80;;
2161;SDS011;1087;50.226;8.682;2023-03-04T09:10:58;21.53;;;13.30;;
2161;SDS011;1087;50.226;8.682;2023-03-04T09:13:24;17.33;;;12.00;;
2161;SDS011;1087;50.226;8.682;2023-03-04T09:15:52;25.70;;;12.70;;
2161;SDS011;1087;50.226;8.682;2023-03-04T09:18:18;16.47;;;9.47;;
2161;SDS011;1087;50.226;8.682;2023-03-04T09:20:46;19.50;;;11.63;;
2161;SDS011;1087;50.226;8.682;2023-03-04T09:23:12;22.40;;;13.50;;
2161;SDS011;1087;50.226;8.682;2023-03-04T09:25:38;21.60;;;11.53;;
2161;SDS011;1087;50.226;8.682;2023-03-04T09:28:04;19.93;;;13.20;;
2161;SDS011;1087;50.226;8.682;2023-03-04T09:30:31;19.90;;;9.93;;
2161;SDS011;1087;50.226;8.682;2023-03-04T09:32:56;15.33;;;10.30;;
2161;SDS011;1087;50.226;8.682;2023-03-04T09:35:22;20.40;;;10.80;;
2161;SDS011;1087;50.226;8.682;2023-03-04T09:37:48;17.83;;;9.73;;
2161;SDS011;1087;50.226;8.682;2023-03-04T09:40:18;15.97;;;10.30;;
2161;SDS011;1087;50.226;8.682;2023-03-04T09:42:47;16.90;;;10.90;;
2161;SDS011;1087;50.226;8.682;2023-03-04T09:45:18;19.73;;;9.90;;
2161;SDS011;1087;50.226;8.682;2023-03-04T09:47:47;17.30;;;12.57;;
2161;SDS011;1087;50.226;8.682;2023-03-04T09:50:15;17.17;;;12.40;;
2161;SDS011;1087;50.226;8.682;2023-03-04T09:52:43;19.50;;;12.40;;
2161;SDS011;1087;50.226;8.682;2023-03-04T09:55:50;20.40;;;10.67;;
2161;SDS011;1087;50.226;8.682;2023-03-04T09:58:27;17.13;;;10.40;;
2161;SDS011;1087;50.226;8.682;2023-03-04T10:01:09;15.33;;;9.73;;
2161;SDS011;1087;50.226;8.682;2023-03-04T10:06:59;13.93;;;9.53;;
2161;SDS011;1087;50.226;8.682;2023-03-04T10:09:29;15.20;;;9.70;;
2161;SDS011;1087;50.226;8.682;2023-03-04T10:12:14;15.73;;;9.87;;
2161;SDS011;1087;50.226;8.682;2023-03-04T10:14:47;17.27;;;10.53;;
2161;SDS011;1087;50.226;8.682;2023-03-04T10:17:18;15.43;;;10.10;;
2161;SDS011;1087;50.226;8.682;2023-03-04T10:20:11;14.03;;;8.20;;
2161;SDS011;1087;50.226;8.682;2023-03-04T10:22:43;15.00;;;9.00;;
2161;SDS011;1087;50.226;8.682;2023-03-04T10:25:16;18.63;;;11.57;;
2161;SDS011;1087;50.226;8.682;2023-03-04T10:27:42;16.77;;;10.73;;
2161;SDS011;1087;50.226;8.682;2023-03-04T10:30:25;14.33;;;9.13;;
2161;SDS011;1087;50.226;8.682;2023-03-04T10:33:01;17.23;;;12.13;;
2161;SDS011;1087;50.226;8.682;2023-03-04T10:35:31;15.80;;;8.73;;
2161;SDS011;1087;50.226;8.682;2023-03-04T10:38:00;15.60;;;9.90;;
2161;SDS011;1087;50.226;8.682;2023-03-04T10:40:28;15.83;;;9.20;;
2161;SDS011;1087;50.226;8.682;2023-03-04T10:43:00;14.03;;;8.83;;
2161;SDS011;1087;50.226;8.682;2023-03-04T10:45:31;15.50;;;9.40;;
2161;SDS011;1087;50.226;8.682;2023-03-04T10:48:02;18.30;;;10.50;;
2161;SDS011;1087;50.226;8.682;2023-03-04T10:50:27;18.03;;;8.27;;
2161;SDS011;1087;50.226;8.682;2023-03-04T10:52:54;15.10;;;7.40;;
2161;SDS011;1087;50.226;8.682;2023-03-04T10:55:25;12.73;;;7.40;;
2161;SDS011;1087;50.226;8.682;2023-03-04T10:58:06;13.13;;;7.40;;
2161;SDS011;1087;50.226;8.682;2023-03-04T11:00:37;14.20;;;6.80;;
2161;SDS011;1087;50.226;8.682;2023-03-04T11:05:47;14.80;;;7.37;;
2161;SDS011;1087;50.226;8.682;2023-03-04T11:08:18;9.20;;;6.17;;
2161;SDS011;1087;50.226;8.682;2023-03-04T11:10:45;12.83;;;7.00;;
2161;SDS011;1087;50.226;8.682;2023-03-04T11:13:21;8.43;;;6.37;;
2161;SDS011;1087;50.226;8.682;2023-03-04T11:15:58;10.40;;;6.30;;
2161;SDS011;1087;50.226;8.682;2023-03-04T11:18:27;9.00;;;6.37;;
2161;SDS011;1087;50.226;8.682;2023-03-04T11:20:57;10.37;;;6.83;;
2161;SDS011;1087;50.226;8.682;2023-03-04T11:23:45;12.90;;;6.97;;
2161;SDS011;1087;50.226;8.682;2023-03-04T11:26:25;11.07;;;6.87;;
2161;SDS011;1087;50.226;8.682;2023-03-04T11:29:04;12.13;;;7.33;;
2161;SDS011;1087;50.226;8.682;2023-03-04T11:31:54;13.00;;;6.20;;
2161;SDS011;1087;50.226;8.682;2023-03-04T11:34:36;11.20;;;6.37;;
2161;SDS011;1087;50.226;8.682;2023-03-04T11:37:15;10.20;;;6.40;;
2161;SDS011;1087;50.226;8.682;2023-03-04T11:42:32;10.50;;;6.77;;
2161;SDS011;1087;50.226;8.682;2023-03-04T11:45:14;11.17;;;6.40;;
2161;SDS011;1087;50.226;8.682;2023-03-04T11:47:49;12.50;;;6.33;;
2161;SDS011;1087;50.226;8.682;2023-03-04T11:50:48;9.13;;;6.00;;
2161;SDS011;1087;50.226;8.682;2023-03-04T11:53:37;11.10;;;6.10;;
2161;SDS011;1087;50.226;8.682;2023-03-04T11:56:29;6.87;;;5.13;;
2161;SDS011;1087;50.226;8.682;2023-03-04T12:02:15;9.00;;;5.20;;
2161;SDS011;1087;50.226;8.682;2023-03-04T12:13:17;8.70;;;4.87;;
2161;SDS011;1087;50.226;8.682;2023-03-04T12:19:23;8.40;;;4.77;;
2161;SDS011;1087;50.226;8.682;2023-03-04T12:22:28;7.73;;;4.33;;
2161;SDS011;1087;50.226;8.682;2023-03-04T12:33:25;5.80;;;5.10;;
2161;SDS011;1087;50.226;8.682;2023-03-04T12:44:54;4.43;;;3.57;;
2161;SDS011;1087;50.226;8.682;2023-03-04T12:48:15;5.77;;;3.93;;
2161;SDS011;1087;50.226;8.682;2023-03-04T12:50:46;5.53;;;3.53;;
2161;SDS011;1087;50.226;8.682;2023-03-04T12:53:39;8.47;;;5.20;;
2161;SDS011;1087;50.226;8.682;2023-03-04T12:56:29;6.13;;;4.20;;
2161;SDS011;1087;50.226;8.682;2023-03-04T12:59:02;4.40;;;3.40;;
2161;SDS011;1087;50.226;8.682;2023-03-04T13:04:01;4.60;;;3.30;;
2161;SDS011;1087;50.226;8.682;2023-03-04T13:09:33;9.30;;;3.43;;
2161;SDS011;1087;50.226;8.682;2023-03-04T13:12:15;5.63;;;3.30;;
2161;SDS011;1087;50.226;8.682;2023-03-04T13:23:02;6.00;;;3.40;;
2161;SDS011;1087;50.226;8.682;2023-03-04T13:35:47;4.50;;;3.33;;
2161;SDS011;1087;50.226;8.682;2023-03-04T13:43:48;10.00;;;4.97;;
2161;SDS011;1087;50.226;8.682;2023-03-04T13:48:58;5.17;;;4.00;;
2161;SDS011;1087;50.226;8.682;2023-03-04T13:51:30;6.97;;;4.40;;
2161;SDS011;1087;50.226;8.682;2023-03-04T13:59:03;5.53;;;4.20;;
2161;SDS011;1087;50.226;8.682;2023-03-04T14:04:12;8.20;;;4.83;;
2161;SDS011;1087;50.226;8.682;2023-03-04T14:06:46;6.13;;;4.63;;
2161;SDS011;1087;50.226;8.682;2023-03-04T14:09:21;6.97;;;4.30;;
2161;SDS011;1087;50.226;8.682;2023-03-04T14:11:55;6.60;;;4.37;;
2161;SDS011;1087;50.226;8.682;2023-03-04T14:14:24;4.70;;;4.20;;
2161;SDS011;1087;50.226;8.682;2023-03-04T14:16:53;5.63;;;4.07;;
2161;SDS011;1087;50.226;8.682;2023-03-04T14:22:02;6.40;;;4.20;;
2161;SDS011;1087;50.226;8.682;2023-03-04T14:24:54;6.20;;;4.10;;
2161;SDS011;1087;50.226;8.682;2023-03-04T14:27:23;9.60;;;5.10;;
2161;SDS011;1087;50.226;8.682;2023-03-04T14:29:59;5.87;;;4.60;;
2161;SDS011;1087;50.226;8.682;2023-03-04T14:32:26;6.77;;;5.90;;
2161;SDS011;1087;50.226;8.682;2023-03-04T14:34:55;5.53;;;4.60;;
2161;SDS011;1087;50.226;8.682;2023-03-04T14:37:23;8.70;;;4.80;;
2161;SDS011;1087;50.226;8.682;2023-03-04T14:39:55;5.20;;;4.17;;
2161;SDS011;1087;50.226;8.682;2023-03-04T14:42:23;7.57;;;5.00;;
2161;SDS011;1087;50.226;8.682;2023-03-04T14:45:01;8.60;;;5.20;;
2161;SDS011;1087;50.226;8.682;2023-03-04T14:47:32;8.60;;;4.57;;
2161;SDS011;1087;50.226;8.682;2023-03-04T14:50:05;4.97;;;4.47;;
2161;SDS011;1087;50.226;8.682;2023-03-04T14:52:33;6.80;;;4.90;;
2161;SDS011;1087;50.226;8.682;2023-03-04T14:55:07;7.90;;;5.30;;
2161;SDS011;1087;50.226;8.682;2023-03-04T14:57:42;8.00;;;5.13;;
2161;SDS011;1087;50.226;8.682;2023-03-04T15:03:50;6.83;;;5.00;;
2161;SDS011;1087;50.226;8.682;2023-03-04T15:05:46;9.87;;;5.30;;
2161;SDS011;1087;50.226;8.682;2023-03-04T15:08:22;15.37;;;6.77;;
2161;SDS011;1087;50.226;8.682;2023-03-04T15:10:55;6.63;;;5.53;;
2161;SDS011;1087;50.226;8.682;2023-03-04T15:13:39;6.47;;;5.00;;
2161;SDS011;1087;50.226;8.682;2023-03-04T15:16:06;5.73;;;4.90;;
2161;SDS011;1087;50.226;8.682;2023-03-04T15:18:33;7.53;;;4.87;;
2161;SDS011;1087;50.226;8.682;2023-03-04T15:23:29;7.27;;;5.10;;
2161;SDS011;1087;50.226;8.682;2023-03-04T15:25:58;9.90;;;5.57;;
2161;SDS011;1087;50.226;8.682;2023-03-04T15:28:26;5.93;;;4.57;;
2161;SDS011;1087;50.226;8.682;2023-03-04T15:30:57;4.90;;;3.93;;
2161;SDS011;1087;50.226;8.682;2023-03-04T15:33:23;4.93;;;3.87;;
2161;SDS011;1087;50.226;8.682;2023-03-04T15:35:51;6.90;;;5.20;;
2161;SDS011;1087;50.226;8.682;2023-03-04T15:38:22;6.90;;;6.00;;
2161;SDS011;1087;50.226;8.682;2023-03-04T15:40:48;6.77;;;5.37;;
2161;SDS011;1087;50.226;8.682;2023-03-04T15:43:15;8.63;;;5.00;;
2161;SDS011;1087;50.226;8.682;2023-03-04T15:45:42;9.50;;;6.47;;
2161;SDS011;1087;50.226;8.682;2023-03-04T15:48:09;7.63;;;5.80;;
2161;SDS011;1087;50.226;8.682;2023-03-04T15:50:44;13.67;;;6.40;;
2161;SDS011;1087;50.226;8.682;2023-03-04T15:53:14;8.73;;;5.77;;
2161;SDS011;1087;50.226;8.682;2023-03-04T15:55:46;5.83;;;4.63;;
2161;SDS011;1087;50.226;8.682;2023-03-04T15:58:12;12.20;;;7.13;;
2161;SDS011;1087;50.226;8.682;2023-03-04T16:00:38;8.50;;;6.33;;
2161;SDS011;1087;50.226;8.682;2023-03-04T16:03:04;10.00;;;6.00;;
2161;SDS011;1087;50.226;8.682;2023-03-04T16:05:30;6.97;;;5.10;;
2161;SDS011;1087;50.226;8.682;2023-03-04T16:07:59;5.40;;;4.90;;
2161;SDS011;1087;50.226;8.682;2023-03-04T16:10:26;6.43;;;5.13;;
2161;SDS011;1087;50.226;8.682;2023-03-04T16:12:54;4.50;;;3.83;;
2161;SDS011;1087;50.226;8.682;2023-03-04T16:15:27;4.70;;;3.80;;
2161;SDS011;1087;50.226;8.682;2023-03-04T16:17:54;7.43;;;4.80;;
2161;SDS011;1087;50.226;8.682;2023-03-04T16:20:21;6.57;;;5.90;;
2161;SDS011;1087;50.226;8.682;2023-03-04T16:22:53;10.23;;;4.70;;
2161;SDS011;1087;50.226;8.682;2023-03-04T16:25:21;5.33;;;4.80;;
2161;SDS011;1087;50.226;8.682;2023-03-04T16:27:49;5.10;;;4.50;;
2161;SDS011;1087;50.226;8.682;2023-03-04T16:30:17;5.17;;;4.67;;
2161;SDS011;1087;50.226;8.682;2023-03-04T16:32:44;6.47;;;5.00;;
2161;SDS011;1087;50.226;8.682;2023-03-04T16:35:10;5.20;;;4.70;;
2161;SDS011;1087;50.226;8.682;2023-03-04T16:37:37;7.20;;;5.17;;